DAL21 KATL-CYUL
Flight info
| Callsign | DAL21 |
|---|---|
| Flight time | 2h 7m |
| Altitude | 37000 |
| Route | PLMMR3 BURGG DCT CLAWD DCT PSK DCT PERRI Q103 EMNEM Q71 PSB J59 SYR DCT ART IMPAC4 |
| Aircraft | B739/M-SDE2E3FGHIRWXY/LB1 |
Departure
| Time | 2026-05-06 21:35 |
|---|---|
| Airport | Hartsfield Jackson Atlanta International Airport (KATL) |
Arrival
| Time | 2026-05-06 23:43 |
|---|---|
| Airport | Montreal / Pierre Elliott Trudeau International Airport (CYUL) |
| Time | Latitude | Longitude | Altitude | Speed | Heading |
|---|---|---|---|---|---|
| 2026-05-06 21:15 | 33.63861 | -84.42984 | 1005 ft | 0 kts | 90° |
| 2026-05-06 21:26 | 33.63861 | -84.42996 | 1005 ft | 4 kts | 90° |
| 2026-05-06 21:26 | 33.63861 | -84.43026 | 1005 ft | 2 kts | 89° |
| 2026-05-06 21:26 | 33.63858 | -84.43052 | 1005 ft | 4 kts | 54° |
| 2026-05-06 21:26 | 33.63840 | -84.43064 | 1005 ft | 3 kts | 0° |
| 2026-05-06 21:27 | 33.63814 | -84.43065 | 1005 ft | 4 kts | 0° |
| 2026-05-06 21:27 | 33.63808 | -84.43065 | 1005 ft | 1 kts | 0° |
| 2026-05-06 21:29 | 33.63809 | -84.43065 | 1005 ft | 1 kts | 0° |
| 2026-05-06 21:29 | 33.63847 | -84.43065 | 1005 ft | 8 kts | 0° |
| 2026-05-06 21:29 | 33.63917 | -84.43064 | 1005 ft | 11 kts | 0° |
| 2026-05-06 21:30 | 33.64005 | -84.43064 | 1005 ft | 14 kts | 0° |
| 2026-05-06 21:30 | 33.64111 | -84.43064 | 1005 ft | 16 kts | 0° |
| 2026-05-06 21:30 | 33.64233 | -84.43064 | 1005 ft | 19 kts | 0° |
| 2026-05-06 21:30 | 33.64366 | -84.43064 | 1006 ft | 18 kts | 0° |
| 2026-05-06 21:31 | 33.64457 | -84.43015 | 1006 ft | 14 kts | 72° |
| 2026-05-06 21:31 | 33.64461 | -84.42900 | 1005 ft | 13 kts | 89° |
| 2026-05-06 21:31 | 33.64472 | -84.42796 | 1005 ft | 11 kts | 62° |
| 2026-05-06 21:31 | 33.64533 | -84.42738 | 1005 ft | 11 kts | 55° |
| 2026-05-06 21:32 | 33.64541 | -84.42647 | 1005 ft | 11 kts | 89° |
| 2026-05-06 21:32 | 33.64543 | -84.42470 | 1005 ft | 10 kts | 89° |
| 2026-05-06 21:32 | 33.64543 | -84.42386 | 1005 ft | 10 kts | 90° |
| 2026-05-06 21:33 | 33.64543 | -84.42304 | 1005 ft | 10 kts | 90° |
| 2026-05-06 21:33 | 33.64543 | -84.42224 | 1005 ft | 9 kts | 90° |
| 2026-05-06 21:33 | 33.64542 | -84.42142 | 1005 ft | 12 kts | 90° |
| 2026-05-06 21:33 | 33.64543 | -84.41979 | 1005 ft | 26 kts | 90° |
| 2026-05-06 21:34 | 33.64543 | -84.41712 | 1006 ft | 36 kts | 90° |
| 2026-05-06 21:34 | 33.64572 | -84.41555 | 1006 ft | 17 kts | 24° |
| 2026-05-06 21:34 | 33.64658 | -84.41617 | 1006 ft | 16 kts | 293° |
| 2026-05-06 21:34 | 33.64673 | -84.41798 | 1006 ft | 36 kts | 272° |
| 2026-05-06 21:35 | 33.64674 | -84.42406 | 1004 ft | 110 kts | 270° |
| 2026-05-06 21:35 | 33.64663 | -84.43573 | 1040 ft | 166 kts | 269° |
| 2026-05-06 21:35 | 33.64739 | -84.44998 | 1718 ft | 169 kts | 274° |
| 2026-05-06 21:35 | 33.64858 | -84.46297 | 2903 ft | 148 kts | 273° |
| 2026-05-06 21:36 | 33.65188 | -84.47557 | 3481 ft | 173 kts | 288° |
| 2026-05-06 21:36 | 33.65708 | -84.48948 | 3951 ft | 191 kts | 288° |
| 2026-05-06 21:36 | 33.66261 | -84.50457 | 4385 ft | 210 kts | 288° |
| 2026-05-06 21:36 | 33.66902 | -84.52159 | 4660 ft | 235 kts | 290° |
| 2026-05-06 21:37 | 33.67671 | -84.53943 | 5241 ft | 253 kts | 296° |
| 2026-05-06 21:37 | 33.68774 | -84.55692 | 5926 ft | 268 kts | 310° |
| 2026-05-06 21:37 | 33.70305 | -84.56934 | 7162 ft | 267 kts | 326° |
| 2026-05-06 21:37 | 33.72086 | -84.57785 | 7881 ft | 285 kts | 338° |
| 2026-05-06 21:38 | 33.74067 | -84.58084 | 8920 ft | 291 kts | 354° |
| 2026-05-06 21:38 | 33.76123 | -84.58032 | 9654 ft | 304 kts | 353° |
| 2026-05-06 21:38 | 33.78262 | -84.57773 | 10383 ft | 320 kts | 12° |
| 2026-05-06 21:38 | 33.79630 | -84.56944 | 10917 ft | 331 kts | 32° |
| 2026-05-06 21:39 | 33.81571 | -84.54043 | 11801 ft | 355 kts | 63° |
| 2026-05-06 21:39 | 33.82240 | -84.51093 | 11993 ft | 379 kts | 86° |
| 2026-05-06 21:39 | 33.82231 | -84.47879 | 12448 ft | 389 kts | 97° |
| 2026-05-06 21:39 | 33.81825 | -84.44635 | 12972 ft | 399 kts | 104° |
| 2026-05-06 21:40 | 33.81511 | -84.42406 | 13054 ft | 415 kts | 100° |
| 2026-05-06 21:40 | 33.81255 | -84.38835 | 13349 ft | 431 kts | 94° |
| 2026-05-06 21:40 | 33.81218 | -84.35186 | 13820 ft | 439 kts | 91° |
| 2026-05-06 21:40 | 33.81556 | -84.31518 | 14348 ft | 444 kts | 78° |
| 2026-05-06 21:41 | 33.82241 | -84.27882 | 14914 ft | 447 kts | 76° |
| 2026-05-06 21:41 | 33.82971 | -84.24227 | 15436 ft | 452 kts | 76° |
| 2026-05-06 21:41 | 33.83702 | -84.20534 | 15957 ft | 456 kts | 76° |
| 2026-05-06 21:41 | 33.84414 | -84.16805 | 16463 ft | 460 kts | 77° |
| 2026-05-06 21:42 | 33.85113 | -84.13030 | 16949 ft | 464 kts | 77° |
| 2026-05-06 21:42 | 33.85802 | -84.09220 | 17459 ft | 468 kts | 77° |
| 2026-05-06 21:42 | 33.86491 | -84.05380 | 17948 ft | 472 kts | 77° |
| 2026-05-06 21:42 | 33.87182 | -84.01509 | 18440 ft | 475 kts | 77° |
| 2026-05-06 21:43 | 33.87878 | -83.97617 | 18862 ft | 478 kts | 77° |
| 2026-05-06 21:43 | 33.88580 | -83.93686 | 19254 ft | 482 kts | 77° |
| 2026-05-06 21:43 | 33.89318 | -83.89731 | 19644 ft | 485 kts | 72° |
| 2026-05-06 21:43 | 33.90495 | -83.85871 | 20057 ft | 486 kts | 63° |
| 2026-05-06 21:44 | 33.91896 | -83.82165 | 20487 ft | 488 kts | 62° |
| 2026-05-06 21:44 | 33.93297 | -83.78417 | 20850 ft | 492 kts | 63° |
| 2026-05-06 21:44 | 33.94647 | -83.74618 | 21218 ft | 496 kts | 64° |
| 2026-05-06 21:44 | 33.96163 | -83.70896 | 21570 ft | 494 kts | 53° |
| 2026-05-06 21:45 | 33.98120 | -83.67526 | 21971 ft | 493 kts | 48° |
| 2026-05-06 21:45 | 34.00195 | -83.64262 | 22359 ft | 495 kts | 47° |
| 2026-05-06 21:45 | 34.02353 | -83.60937 | 22720 ft | 498 kts | 47° |
| 2026-05-06 21:45 | 34.04476 | -83.57635 | 23061 ft | 501 kts | 47° |
| 2026-05-06 21:46 | 34.06593 | -83.54281 | 23394 ft | 504 kts | 48° |
| 2026-05-06 21:46 | 34.08704 | -83.50877 | 23701 ft | 507 kts | 48° |
| 2026-05-06 21:46 | 34.10837 | -83.47397 | 23986 ft | 509 kts | 49° |
| 2026-05-06 21:46 | 34.12939 | -83.43947 | 24309 ft | 511 kts | 49° |
| 2026-05-06 21:47 | 34.15071 | -83.40440 | 24613 ft | 513 kts | 49° |
| 2026-05-06 21:47 | 34.17188 | -83.36960 | 24888 ft | 515 kts | 49° |
| 2026-05-06 21:47 | 34.19286 | -83.33513 | 25149 ft | 517 kts | 49° |
| 2026-05-06 21:47 | 34.21417 | -83.30011 | 25417 ft | 519 kts | 49° |
| 2026-05-06 21:48 | 34.23552 | -83.26500 | 25697 ft | 520 kts | 49° |
| 2026-05-06 21:48 | 34.25700 | -83.22964 | 25959 ft | 522 kts | 49° |
| 2026-05-06 21:48 | 34.27855 | -83.19414 | 26207 ft | 524 kts | 49° |
| 2026-05-06 21:48 | 34.30017 | -83.15849 | 26451 ft | 526 kts | 49° |
| 2026-05-06 21:49 | 34.32209 | -83.12238 | 26686 ft | 527 kts | 49° |
| 2026-05-06 21:49 | 34.34392 | -83.08664 | 26931 ft | 529 kts | 49° |
| 2026-05-06 21:49 | 34.36566 | -83.05119 | 27174 ft | 531 kts | 49° |
| 2026-05-06 21:49 | 34.38768 | -83.01527 | 27410 ft | 532 kts | 49° |
| 2026-05-06 21:50 | 34.40975 | -82.97922 | 27623 ft | 534 kts | 49° |
| 2026-05-06 21:50 | 34.43193 | -82.94291 | 27831 ft | 536 kts | 49° |
| 2026-05-06 21:50 | 34.45405 | -82.90663 | 28071 ft | 537 kts | 49° |
| 2026-05-06 21:50 | 34.47620 | -82.87022 | 28401 ft | 536 kts | 49° |
| 2026-05-06 21:51 | 34.49823 | -82.83397 | 28768 ft | 534 kts | 49° |
| 2026-05-06 21:51 | 34.52027 | -82.79767 | 29112 ft | 533 kts | 49° |
| 2026-05-06 21:51 | 34.54224 | -82.76145 | 29462 ft | 533 kts | 49° |
| 2026-05-06 21:51 | 34.56405 | -82.72547 | 29821 ft | 532 kts | 49° |
| 2026-05-06 21:52 | 34.58614 | -82.68900 | 30188 ft | 531 kts | 49° |
| 2026-05-06 21:52 | 34.60795 | -82.65294 | 30512 ft | 531 kts | 49° |
| 2026-05-06 21:52 | 34.62983 | -82.61674 | 30804 ft | 532 kts | 49° |
| 2026-05-06 21:52 | 34.65172 | -82.58050 | 31109 ft | 532 kts | 49° |
| 2026-05-06 21:53 | 34.67387 | -82.54371 | 31426 ft | 532 kts | 49° |
| 2026-05-06 21:53 | 34.69555 | -82.50711 | 31770 ft | 532 kts | 50° |
| 2026-05-06 21:53 | 34.71703 | -82.47045 | 32088 ft | 533 kts | 50° |
| 2026-05-06 21:53 | 34.73847 | -82.43368 | 32413 ft | 534 kts | 50° |
| 2026-05-06 21:54 | 34.76057 | -82.39575 | 32772 ft | 533 kts | 50° |
| 2026-05-06 21:54 | 34.78196 | -82.35907 | 33090 ft | 534 kts | 50° |
| 2026-05-06 21:54 | 34.80382 | -82.32161 | 33434 ft | 535 kts | 49° |
| 2026-05-06 21:54 | 34.82539 | -82.28465 | 33770 ft | 535 kts | 49° |
| 2026-05-06 21:55 | 34.84716 | -82.24732 | 34079 ft | 535 kts | 49° |
| 2026-05-06 21:55 | 34.86872 | -82.21034 | 34303 ft | 537 kts | 49° |
| 2026-05-06 21:55 | 34.89035 | -82.17319 | 34513 ft | 538 kts | 49° |
| 2026-05-06 21:55 | 34.91203 | -82.13591 | 34766 ft | 539 kts | 49° |
| 2026-05-06 21:56 | 34.93366 | -82.09865 | 35038 ft | 539 kts | 48° |
| 2026-05-06 21:56 | 34.95531 | -82.06131 | 35278 ft | 540 kts | 48° |
| 2026-05-06 21:56 | 34.97730 | -82.02335 | 35482 ft | 541 kts | 48° |
| 2026-05-06 21:56 | 34.99904 | -81.98581 | 35704 ft | 542 kts | 47° |
| 2026-05-06 21:57 | 35.02140 | -81.94900 | 35926 ft | 536 kts | 39° |
| 2026-05-06 21:57 | 35.04845 | -81.91915 | 36140 ft | 514 kts | 22° |
| 2026-05-06 21:57 | 35.07905 | -81.89880 | 36426 ft | 494 kts | 12° |
| 2026-05-06 21:57 | 35.11079 | -81.88162 | 36754 ft | 491 kts | 11° |
| 2026-05-06 21:58 | 35.14210 | -81.86506 | 36987 ft | 491 kts | 10° |
| 2026-05-06 21:58 | 35.17359 | -81.84841 | 36974 ft | 494 kts | 11° |
| 2026-05-06 21:58 | 35.22632 | -81.81994 | 36974 ft | 493 kts | 11° |
| 2026-05-06 21:59 | 35.28878 | -81.78543 | 36981 ft | 492 kts | 11° |
| 2026-05-06 21:59 | 35.35108 | -81.75070 | 36972 ft | 491 kts | 11° |
| 2026-05-06 22:00 | 35.41313 | -81.71605 | 36958 ft | 490 kts | 11° |
| 2026-05-06 22:00 | 35.47560 | -81.68122 | 36976 ft | 497 kts | 11° |
| 2026-05-06 22:01 | 35.53871 | -81.64597 | 36977 ft | 498 kts | 12° |
| 2026-05-06 22:01 | 35.60214 | -81.61040 | 36991 ft | 498 kts | 11° |
| 2026-05-06 22:02 | 35.66521 | -81.57496 | 37010 ft | 498 kts | 11° |
| 2026-05-06 22:02 | 35.72814 | -81.53957 | 37010 ft | 497 kts | 12° |
| 2026-05-06 22:03 | 35.79093 | -81.50420 | 37028 ft | 496 kts | 12° |
| 2026-05-06 22:03 | 35.85356 | -81.46887 | 37012 ft | 495 kts | 12° |
| 2026-05-06 22:04 | 35.91621 | -81.43345 | 37004 ft | 494 kts | 12° |
| 2026-05-06 22:04 | 35.97862 | -81.39811 | 36978 ft | 493 kts | 12° |
| 2026-05-06 22:05 | 36.04090 | -81.36280 | 36975 ft | 492 kts | 12° |
| 2026-05-06 22:05 | 36.10313 | -81.32745 | 36992 ft | 492 kts | 12° |
| 2026-05-06 22:06 | 36.16527 | -81.29209 | 37009 ft | 491 kts | 12° |
| 2026-05-06 22:06 | 36.22742 | -81.25666 | 37010 ft | 491 kts | 12° |
| 2026-05-06 22:07 | 36.28944 | -81.22124 | 37028 ft | 491 kts | 12° |
| 2026-05-06 22:07 | 36.35156 | -81.18569 | 37014 ft | 492 kts | 12° |
| 2026-05-06 22:08 | 36.41362 | -81.15011 | 37012 ft | 491 kts | 12° |
| 2026-05-06 22:08 | 36.47576 | -81.11209 | 36983 ft | 497 kts | 15° |
| 2026-05-06 22:09 | 36.53692 | -81.07191 | 36975 ft | 498 kts | 15° |
| 2026-05-06 22:09 | 36.59811 | -81.03177 | 36973 ft | 497 kts | 14° |
| 2026-05-06 22:10 | 36.65945 | -80.99198 | 36985 ft | 497 kts | 14° |
| 2026-05-06 22:10 | 36.72080 | -80.95229 | 36994 ft | 497 kts | 14° |
| 2026-05-06 22:11 | 36.78221 | -80.91250 | 36997 ft | 497 kts | 14° |
| 2026-05-06 22:11 | 36.84349 | -80.87266 | 36992 ft | 496 kts | 14° |
| 2026-05-06 22:12 | 36.90464 | -80.83284 | 36993 ft | 495 kts | 14° |
| 2026-05-06 22:12 | 36.96579 | -80.79296 | 36943 ft | 495 kts | 14° |
| 2026-05-06 22:13 | 37.02673 | -80.75312 | 36971 ft | 494 kts | 14° |
| 2026-05-06 22:13 | 37.08777 | -80.71425 | 36961 ft | 484 kts | 8° |
| 2026-05-06 22:14 | 37.11887 | -80.70079 | 36970 ft | 466 kts | 0° |
| 2026-05-06 22:14 | 37.15005 | -80.69030 | 36974 ft | 463 kts | 360° |
| 2026-05-06 22:14 | 37.21247 | -80.67038 | 36975 ft | 462 kts | 359° |
| 2026-05-06 22:15 | 37.27482 | -80.65014 | 36964 ft | 464 kts | 360° |
| 2026-05-06 22:15 | 37.33771 | -80.62915 | 36953 ft | 465 kts | 0° |
| 2026-05-06 22:16 | 37.40027 | -80.60801 | 36948 ft | 466 kts | 0° |
| 2026-05-06 22:16 | 37.46243 | -80.58694 | 36922 ft | 466 kts | 0° |
| 2026-05-06 22:17 | 37.52502 | -80.56572 | 36919 ft | 466 kts | 0° |
| 2026-05-06 22:17 | 37.58856 | -80.54414 | 36925 ft | 466 kts | 0° |
| 2026-05-06 22:18 | 37.65078 | -80.52298 | 36929 ft | 466 kts | 0° |
| 2026-05-06 22:18 | 37.71376 | -80.50152 | 36938 ft | 466 kts | 0° |
| 2026-05-06 22:19 | 37.77629 | -80.48017 | 36959 ft | 465 kts | 1° |
| 2026-05-06 22:19 | 37.83875 | -80.45882 | 36948 ft | 465 kts | 1° |
| 2026-05-06 22:20 | 37.90131 | -80.43741 | 36955 ft | 465 kts | 1° |
| 2026-05-06 22:20 | 37.96372 | -80.41600 | 36943 ft | 465 kts | 1° |
| 2026-05-06 22:21 | 38.02668 | -80.39436 | 36949 ft | 465 kts | 1° |
| 2026-05-06 22:21 | 38.08912 | -80.37287 | 36940 ft | 465 kts | 1° |
| 2026-05-06 22:22 | 38.15144 | -80.35137 | 36933 ft | 464 kts | 1° |
| 2026-05-06 22:22 | 38.21381 | -80.32981 | 36939 ft | 464 kts | 1° |
| 2026-05-06 22:23 | 38.27621 | -80.30823 | 36936 ft | 466 kts | 1° |
| 2026-05-06 22:23 | 38.33916 | -80.28646 | 36951 ft | 466 kts | 1° |
| 2026-05-06 22:24 | 38.40183 | -80.26487 | 36952 ft | 466 kts | 1° |
| 2026-05-06 22:24 | 38.46452 | -80.24320 | 36949 ft | 466 kts | 1° |
| 2026-05-06 22:25 | 38.52709 | -80.22153 | 36954 ft | 466 kts | 1° |
| 2026-05-06 22:25 | 38.57951 | -80.20334 | 36945 ft | 466 kts | 1° |
| 2026-05-06 22:26 | 38.64213 | -80.18158 | 36959 ft | 465 kts | 1° |
| 2026-05-06 22:26 | 38.70452 | -80.15984 | 36959 ft | 464 kts | 1° |
| 2026-05-06 22:27 | 38.76715 | -80.13793 | 36976 ft | 462 kts | 2° |
| 2026-05-06 22:27 | 38.82919 | -80.11622 | 36971 ft | 462 kts | 2° |
| 2026-05-06 22:28 | 38.89159 | -80.09435 | 36968 ft | 462 kts | 2° |
| 2026-05-06 22:28 | 38.92262 | -80.08513 | 36966 ft | 450 kts | 355° |
| 2026-05-06 22:28 | 38.95323 | -80.08191 | 36966 ft | 434 kts | 347° |
| 2026-05-06 22:29 | 39.01337 | -80.08161 | 36961 ft | 432 kts | 346° |
| 2026-05-06 22:29 | 39.07346 | -80.08150 | 36964 ft | 432 kts | 347° |
| 2026-05-06 22:30 | 39.13369 | -80.08088 | 36962 ft | 433 kts | 347° |
| 2026-05-06 22:30 | 39.19399 | -80.07999 | 36960 ft | 433 kts | 347° |
| 2026-05-06 22:31 | 39.25469 | -80.07905 | 36974 ft | 433 kts | 347° |
| 2026-05-06 22:31 | 39.31500 | -80.07814 | 36968 ft | 434 kts | 347° |
| 2026-05-06 22:32 | 39.37548 | -80.07724 | 36961 ft | 434 kts | 347° |
| 2026-05-06 22:32 | 39.43593 | -80.07632 | 36969 ft | 434 kts | 347° |
| 2026-05-06 22:33 | 39.49682 | -80.07245 | 36948 ft | 456 kts | 0° |
| 2026-05-06 22:33 | 39.52787 | -80.05772 | 36978 ft | 483 kts | 15° |
| 2026-05-06 22:33 | 39.55596 | -80.03213 | 36966 ft | 509 kts | 34° |
| 2026-05-06 22:34 | 39.60381 | -79.96293 | 36974 ft | 518 kts | 40° |
| 2026-05-06 22:34 | 39.65019 | -79.89129 | 36962 ft | 517 kts | 40° |
| 2026-05-06 22:35 | 39.69727 | -79.82021 | 36984 ft | 514 kts | 39° |
| 2026-05-06 22:35 | 39.74444 | -79.75041 | 36970 ft | 514 kts | 39° |
| 2026-05-06 22:36 | 39.79171 | -79.68067 | 36962 ft | 514 kts | 39° |
| 2026-05-06 22:36 | 39.83919 | -79.61032 | 36977 ft | 514 kts | 39° |
| 2026-05-06 22:37 | 39.88659 | -79.53983 | 36958 ft | 514 kts | 39° |
| 2026-05-06 22:37 | 39.93423 | -79.46877 | 36984 ft | 513 kts | 39° |
| 2026-05-06 22:38 | 39.98121 | -79.39858 | 36956 ft | 514 kts | 39° |
| 2026-05-06 22:38 | 40.02849 | -79.32775 | 36939 ft | 514 kts | 39° |
| 2026-05-06 22:39 | 40.07572 | -79.25684 | 36959 ft | 514 kts | 40° |
| 2026-05-06 22:39 | 40.12258 | -79.18633 | 36938 ft | 513 kts | 40° |
| 2026-05-06 22:40 | 40.16966 | -79.11567 | 36936 ft | 511 kts | 39° |
| 2026-05-06 22:40 | 40.21704 | -79.04570 | 36935 ft | 509 kts | 39° |
| 2026-05-06 22:41 | 40.27985 | -78.95292 | 36938 ft | 508 kts | 39° |
| 2026-05-06 22:42 | 40.32660 | -78.88347 | 36935 ft | 508 kts | 39° |
| 2026-05-06 22:42 | 40.37323 | -78.81396 | 36932 ft | 507 kts | 39° |
| 2026-05-06 22:43 | 40.42006 | -78.74398 | 36934 ft | 507 kts | 39° |
| 2026-05-06 22:43 | 40.46644 | -78.67453 | 36923 ft | 505 kts | 40° |
| 2026-05-06 22:44 | 40.51276 | -78.60501 | 36924 ft | 504 kts | 40° |
| 2026-05-06 22:44 | 40.55954 | -78.53465 | 36907 ft | 504 kts | 40° |
| 2026-05-06 22:45 | 40.60528 | -78.46569 | 36909 ft | 503 kts | 40° |
| 2026-05-06 22:45 | 40.65158 | -78.39573 | 36903 ft | 503 kts | 40° |
| 2026-05-06 22:46 | 40.69769 | -78.32590 | 36904 ft | 502 kts | 40° |
| 2026-05-06 22:46 | 40.74348 | -78.25638 | 36915 ft | 501 kts | 40° |
| 2026-05-06 22:47 | 40.78913 | -78.18692 | 36916 ft | 501 kts | 40° |
| 2026-05-06 22:47 | 40.82959 | -78.12522 | 36903 ft | 500 kts | 40° |
| 2026-05-06 22:48 | 40.87500 | -78.05582 | 36905 ft | 499 kts | 40° |
| 2026-05-06 22:48 | 40.92267 | -77.99021 | 36904 ft | 485 kts | 29° |
| 2026-05-06 22:48 | 40.95020 | -77.96464 | 36905 ft | 471 kts | 20° |
| 2026-05-06 22:49 | 40.97856 | -77.94310 | 36917 ft | 469 kts | 19° |
| 2026-05-06 22:49 | 41.03509 | -77.90099 | 36903 ft | 469 kts | 19° |
| 2026-05-06 22:50 | 41.09186 | -77.85797 | 36908 ft | 470 kts | 20° |
| 2026-05-06 22:50 | 41.14853 | -77.81434 | 36911 ft | 471 kts | 20° |
| 2026-05-06 22:51 | 41.20557 | -77.77020 | 36912 ft | 472 kts | 20° |
| 2026-05-06 22:51 | 41.26234 | -77.72621 | 36918 ft | 473 kts | 20° |
| 2026-05-06 22:52 | 41.31916 | -77.68211 | 36925 ft | 474 kts | 20° |
| 2026-05-06 22:52 | 41.37613 | -77.63782 | 36912 ft | 474 kts | 20° |
| 2026-05-06 22:53 | 41.43306 | -77.59356 | 36923 ft | 474 kts | 20° |
| 2026-05-06 22:53 | 41.49012 | -77.54912 | 36916 ft | 475 kts | 21° |
| 2026-05-06 22:54 | 41.54715 | -77.50459 | 36923 ft | 475 kts | 21° |
| 2026-05-06 22:54 | 41.60406 | -77.46005 | 36940 ft | 475 kts | 21° |
| 2026-05-06 22:55 | 41.66108 | -77.41533 | 36932 ft | 475 kts | 21° |
| 2026-05-06 22:55 | 41.71795 | -77.37064 | 36935 ft | 474 kts | 21° |
| 2026-05-06 22:56 | 41.77478 | -77.32589 | 36946 ft | 474 kts | 21° |
| 2026-05-06 22:56 | 41.83196 | -77.28076 | 36938 ft | 473 kts | 21° |
| 2026-05-06 22:57 | 41.88863 | -77.23595 | 36947 ft | 472 kts | 21° |
| 2026-05-06 22:57 | 41.94557 | -77.19083 | 36938 ft | 472 kts | 21° |
| 2026-05-06 22:58 | 42.00211 | -77.14594 | 36927 ft | 472 kts | 21° |
| 2026-05-06 22:58 | 42.05862 | -77.10097 | 36928 ft | 472 kts | 21° |
| 2026-05-06 22:59 | 42.11522 | -77.05584 | 36922 ft | 472 kts | 21° |
| 2026-05-06 22:59 | 42.17176 | -77.01065 | 36919 ft | 473 kts | 21° |
| 2026-05-06 23:00 | 42.22836 | -76.96534 | 36916 ft | 474 kts | 21° |
| 2026-05-06 23:00 | 42.28515 | -76.91979 | 36926 ft | 477 kts | 21° |
| 2026-05-06 23:01 | 42.34226 | -76.87388 | 36933 ft | 479 kts | 22° |
| 2026-05-06 23:01 | 42.39959 | -76.82765 | 36922 ft | 480 kts | 22° |
| 2026-05-06 23:02 | 42.45701 | -76.78125 | 36919 ft | 481 kts | 22° |
| 2026-05-06 23:02 | 42.51453 | -76.73466 | 36920 ft | 481 kts | 22° |
| 2026-05-06 23:03 | 42.57196 | -76.68804 | 36930 ft | 482 kts | 22° |
| 2026-05-06 23:03 | 42.62957 | -76.64120 | 36926 ft | 482 kts | 22° |
| 2026-05-06 23:04 | 42.68754 | -76.59397 | 36924 ft | 484 kts | 22° |
| 2026-05-06 23:04 | 42.74533 | -76.54681 | 36927 ft | 484 kts | 22° |
| 2026-05-06 23:05 | 42.80311 | -76.49953 | 36913 ft | 485 kts | 22° |
| 2026-05-06 23:05 | 42.86096 | -76.45210 | 36923 ft | 485 kts | 22° |
| 2026-05-06 23:06 | 42.90905 | -76.41265 | 36915 ft | 485 kts | 22° |
| 2026-05-06 23:06 | 42.96735 | -76.36481 | 36912 ft | 486 kts | 22° |
| 2026-05-06 23:07 | 43.02532 | -76.31711 | 36920 ft | 486 kts | 22° |
| 2026-05-06 23:07 | 43.08331 | -76.26928 | 36901 ft | 488 kts | 22° |
| 2026-05-06 23:08 | 43.14063 | -76.22344 | 36903 ft | 481 kts | 15° |
| 2026-05-06 23:08 | 43.17144 | -76.20658 | 36921 ft | 470 kts | 7° |
| 2026-05-06 23:08 | 43.20273 | -76.19605 | 36906 ft | 458 kts | 358° |
| 2026-05-06 23:09 | 43.26580 | -76.18541 | 36919 ft | 457 kts | 356° |
| 2026-05-06 23:09 | 43.32921 | -76.17525 | 36926 ft | 462 kts | 356° |
| 2026-05-06 23:10 | 43.39326 | -76.16437 | 36925 ft | 467 kts | 356° |
| 2026-05-06 23:10 | 43.45867 | -76.15286 | 36914 ft | 469 kts | 356° |
| 2026-05-06 23:11 | 43.52298 | -76.14141 | 36916 ft | 470 kts | 356° |
| 2026-05-06 23:11 | 43.58812 | -76.12982 | 36884 ft | 464 kts | 356° |
| 2026-05-06 23:11 | 43.61992 | -76.12410 | 36442 ft | 458 kts | 356° |
| 2026-05-06 23:12 | 43.65149 | -76.11849 | 35637 ft | 459 kts | 356° |
| 2026-05-06 23:12 | 43.68301 | -76.11298 | 34659 ft | 466 kts | 355° |
| 2026-05-06 23:12 | 43.71582 | -76.10727 | 33565 ft | 473 kts | 355° |
| 2026-05-06 23:12 | 43.74869 | -76.10151 | 32450 ft | 479 kts | 356° |
| 2026-05-06 23:13 | 43.78186 | -76.09560 | 31416 ft | 482 kts | 356° |
| 2026-05-06 23:13 | 43.81517 | -76.08960 | 30420 ft | 484 kts | 357° |
| 2026-05-06 23:13 | 43.84857 | -76.08357 | 29293 ft | 485 kts | 358° |
| 2026-05-06 23:13 | 43.88227 | -76.07747 | 28795 ft | 474 kts | 358° |
| 2026-05-06 23:14 | 43.91477 | -76.07156 | 28515 ft | 470 kts | 358° |
| 2026-05-06 23:14 | 43.94745 | -76.06411 | 28243 ft | 489 kts | 7° |
| 2026-05-06 23:14 | 43.97929 | -76.04433 | 27991 ft | 512 kts | 25° |
| 2026-05-06 23:14 | 44.00939 | -76.01754 | 27847 ft | 515 kts | 27° |
| 2026-05-06 23:15 | 44.03923 | -75.99016 | 27565 ft | 513 kts | 27° |
| 2026-05-06 23:15 | 44.06889 | -75.96289 | 27309 ft | 513 kts | 27° |
| 2026-05-06 23:15 | 44.09884 | -75.93567 | 27053 ft | 514 kts | 27° |
| 2026-05-06 23:15 | 44.12833 | -75.90920 | 26945 ft | 515 kts | 30° |
| 2026-05-06 23:16 | 44.15889 | -75.88201 | 26689 ft | 509 kts | 30° |
| 2026-05-06 23:16 | 44.18882 | -75.85542 | 26437 ft | 510 kts | 30° |
| 2026-05-06 23:16 | 44.21879 | -75.82881 | 26196 ft | 512 kts | 30° |
| 2026-05-06 23:16 | 44.24894 | -75.80201 | 25940 ft | 514 kts | 30° |
| 2026-05-06 23:17 | 44.27905 | -75.77519 | 25693 ft | 515 kts | 30° |
| 2026-05-06 23:17 | 44.30925 | -75.74824 | 25454 ft | 516 kts | 30° |
| 2026-05-06 23:17 | 44.33954 | -75.72117 | 25214 ft | 516 kts | 30° |
| 2026-05-06 23:17 | 44.36974 | -75.69412 | 24971 ft | 517 kts | 30° |
| 2026-05-06 23:18 | 44.40045 | -75.66660 | 24735 ft | 517 kts | 30° |
| 2026-05-06 23:18 | 44.43080 | -75.63937 | 24501 ft | 518 kts | 30° |
| 2026-05-06 23:18 | 44.46103 | -75.61222 | 24259 ft | 518 kts | 30° |
| 2026-05-06 23:18 | 44.49138 | -75.58494 | 24024 ft | 517 kts | 30° |
| 2026-05-06 23:19 | 44.52163 | -75.55771 | 23792 ft | 517 kts | 30° |
| 2026-05-06 23:19 | 44.55191 | -75.53043 | 23558 ft | 515 kts | 30° |
| 2026-05-06 23:19 | 44.58240 | -75.50291 | 23305 ft | 514 kts | 30° |
| 2026-05-06 23:19 | 44.61191 | -75.47624 | 23032 ft | 509 kts | 30° |
| 2026-05-06 23:20 | 44.64201 | -75.44901 | 22768 ft | 507 kts | 30° |
| 2026-05-06 23:20 | 44.67170 | -75.42212 | 22498 ft | 506 kts | 30° |
| 2026-05-06 23:20 | 44.70120 | -75.39538 | 22231 ft | 503 kts | 30° |
| 2026-05-06 23:20 | 44.73014 | -75.36672 | 21948 ft | 505 kts | 39° |
| 2026-05-06 23:21 | 44.75427 | -75.33074 | 21710 ft | 504 kts | 49° |
| 2026-05-06 23:21 | 44.77677 | -75.29314 | 21460 ft | 502 kts | 49° |
| 2026-05-06 23:21 | 44.79946 | -75.25483 | 21197 ft | 501 kts | 49° |
| 2026-05-06 23:21 | 44.82187 | -75.21739 | 20945 ft | 500 kts | 49° |
| 2026-05-06 23:22 | 44.84472 | -75.17979 | 20698 ft | 499 kts | 48° |
| 2026-05-06 23:22 | 44.86742 | -75.14283 | 20453 ft | 497 kts | 48° |
| 2026-05-06 23:22 | 44.89012 | -75.10604 | 20209 ft | 495 kts | 48° |
| 2026-05-06 23:22 | 44.91218 | -75.07026 | 19996 ft | 469 kts | 48° |
| 2026-05-06 23:23 | 44.93300 | -75.03582 | 19718 ft | 443 kts | 53° |
| 2026-05-06 23:23 | 44.94739 | -74.99878 | 19435 ft | 419 kts | 73° |
| 2026-05-06 23:23 | 44.95378 | -74.95995 | 19200 ft | 396 kts | 84° |
| 2026-05-06 23:23 | 44.95756 | -74.92234 | 18947 ft | 378 kts | 86° |
| 2026-05-06 23:24 | 44.96098 | -74.88467 | 18693 ft | 367 kts | 86° |
| 2026-05-06 23:24 | 44.96402 | -74.85064 | 18467 ft | 363 kts | 87° |
| 2026-05-06 23:24 | 44.96717 | -74.81522 | 18234 ft | 359 kts | 87° |
| 2026-05-06 23:24 | 44.97030 | -74.78001 | 17980 ft | 357 kts | 87° |
| 2026-05-06 23:25 | 44.97336 | -74.74534 | 17708 ft | 355 kts | 87° |
| 2026-05-06 23:25 | 44.97639 | -74.71088 | 17437 ft | 353 kts | 87° |
| 2026-05-06 23:25 | 44.98246 | -74.67694 | 17103 ft | 356 kts | 62° |
| 2026-05-06 23:25 | 44.99801 | -74.65053 | 16858 ft | 349 kts | 32° |
| 2026-05-06 23:26 | 45.01958 | -74.63720 | 16603 ft | 333 kts | 1° |
| 2026-05-06 23:26 | 45.04235 | -74.63585 | 16393 ft | 328 kts | 356° |
| 2026-05-06 23:26 | 45.06531 | -74.63204 | 16139 ft | 335 kts | 2° |
| 2026-05-06 23:26 | 45.08054 | -74.62826 | 15972 ft | 336 kts | 4° |
| 2026-05-06 23:27 | 45.10360 | -74.62028 | 15696 ft | 342 kts | 18° |
| 2026-05-06 23:27 | 45.12337 | -74.60181 | 15443 ft | 350 kts | 42° |
| 2026-05-06 23:27 | 45.13812 | -74.57422 | 15062 ft | 355 kts | 57° |
| 2026-05-06 23:27 | 45.15131 | -74.54338 | 14847 ft | 373 kts | 58° |
| 2026-05-06 23:28 | 45.16491 | -74.51083 | 14645 ft | 405 kts | 58° |
| 2026-05-06 23:28 | 45.17999 | -74.47536 | 14416 ft | 434 kts | 58° |
| 2026-05-06 23:28 | 45.19632 | -74.43766 | 14168 ft | 446 kts | 57° |
| 2026-05-06 23:28 | 45.21244 | -74.40069 | 13673 ft | 448 kts | 57° |
| 2026-05-06 23:29 | 45.22879 | -74.36301 | 12831 ft | 447 kts | 57° |
| 2026-05-06 23:29 | 45.24495 | -74.32565 | 12014 ft | 443 kts | 57° |
| 2026-05-06 23:29 | 45.26118 | -74.28803 | 11189 ft | 439 kts | 57° |
| 2026-05-06 23:29 | 45.27683 | -74.25168 | 10925 ft | 422 kts | 57° |
| 2026-05-06 23:30 | 45.29186 | -74.21672 | 10696 ft | 406 kts | 57° |
| 2026-05-06 23:30 | 45.30538 | -74.18526 | 10518 ft | 388 kts | 57° |
| 2026-05-06 23:30 | 45.31901 | -74.15351 | 10349 ft | 367 kts | 57° |
| 2026-05-06 23:30 | 45.33198 | -74.12331 | 10190 ft | 349 kts | 57° |
| 2026-05-06 23:31 | 45.34455 | -74.09398 | 10048 ft | 336 kts | 57° |
| 2026-05-06 23:31 | 45.35639 | -74.06637 | 9794 ft | 332 kts | 57° |
| 2026-05-06 23:31 | 45.37078 | -74.04106 | 9407 ft | 327 kts | 40° |
| 2026-05-06 23:31 | 45.38760 | -74.01968 | 9057 ft | 323 kts | 37° |
| 2026-05-06 23:32 | 45.40457 | -73.99861 | 8685 ft | 321 kts | 37° |
| 2026-05-06 23:32 | 45.42115 | -73.97760 | 8334 ft | 319 kts | 38° |
| 2026-05-06 23:32 | 45.43751 | -73.95649 | 8039 ft | 315 kts | 38° |
| 2026-05-06 23:32 | 45.45353 | -73.93564 | 7996 ft | 301 kts | 38° |
| 2026-05-06 23:33 | 45.46871 | -73.91583 | 7673 ft | 298 kts | 38° |
| 2026-05-06 23:33 | 45.48438 | -73.89544 | 7101 ft | 306 kts | 38° |
| 2026-05-06 23:33 | 45.49994 | -73.87512 | 6674 ft | 300 kts | 39° |
| 2026-05-06 23:33 | 45.51510 | -73.85528 | 6357 ft | 292 kts | 39° |
| 2026-05-06 23:34 | 45.52990 | -73.83592 | 6001 ft | 285 kts | 39° |
| 2026-05-06 23:34 | 45.54425 | -73.81714 | 5752 ft | 273 kts | 39° |
| 2026-05-06 23:34 | 45.55804 | -73.79909 | 5482 ft | 264 kts | 39° |
| 2026-05-06 23:34 | 45.57138 | -73.78160 | 5219 ft | 256 kts | 39° |
| 2026-05-06 23:35 | 45.58430 | -73.76467 | 4956 ft | 249 kts | 39° |
| 2026-05-06 23:35 | 45.59697 | -73.74806 | 4704 ft | 247 kts | 39° |
| 2026-05-06 23:35 | 45.60959 | -73.73151 | 4450 ft | 245 kts | 39° |
| 2026-05-06 23:35 | 45.62233 | -73.71483 | 4191 ft | 244 kts | 39° |
| 2026-05-06 23:36 | 45.63479 | -73.69845 | 3941 ft | 243 kts | 39° |
| 2026-05-06 23:36 | 45.64716 | -73.68218 | 3683 ft | 242 kts | 39° |
| 2026-05-06 23:36 | 45.65952 | -73.66590 | 3435 ft | 241 kts | 39° |
| 2026-05-06 23:36 | 45.67007 | -73.64738 | 3148 ft | 244 kts | 65° |
| 2026-05-06 23:37 | 45.67415 | -73.62420 | 3053 ft | 237 kts | 89° |
| 2026-05-06 23:37 | 45.67040 | -73.60246 | 3007 ft | 218 kts | 125° |
| 2026-05-06 23:37 | 45.65971 | -73.58866 | 2998 ft | 202 kts | 160° |
| 2026-05-06 23:37 | 45.64668 | -73.58144 | 3023 ft | 202 kts | 166° |
| 2026-05-06 23:38 | 45.63315 | -73.57561 | 2987 ft | 201 kts | 180° |
| 2026-05-06 23:38 | 45.61983 | -73.57779 | 3012 ft | 192 kts | 196° |
| 2026-05-06 23:38 | 45.60676 | -73.58249 | 3001 ft | 189 kts | 211° |
| 2026-05-06 23:38 | 45.59647 | -73.59289 | 3009 ft | 173 kts | 222° |
| 2026-05-06 23:39 | 45.58745 | -73.60330 | 2931 ft | 160 kts | 225° |
| 2026-05-06 23:39 | 45.57921 | -73.61362 | 2735 ft | 155 kts | 226° |
| 2026-05-06 23:39 | 45.57130 | -73.62367 | 2528 ft | 150 kts | 227° |
| 2026-05-06 23:39 | 45.56356 | -73.63360 | 2328 ft | 151 kts | 227° |
| 2026-05-06 23:40 | 45.55572 | -73.64364 | 2118 ft | 151 kts | 226° |
| 2026-05-06 23:40 | 45.54789 | -73.65370 | 1924 ft | 151 kts | 226° |
| 2026-05-06 23:40 | 45.54009 | -73.66366 | 1764 ft | 148 kts | 225° |
| 2026-05-06 23:40 | 45.53261 | -73.67325 | 1521 ft | 139 kts | 225° |
| 2026-05-06 23:41 | 45.52573 | -73.68210 | 1329 ft | 129 kts | 225° |
| 2026-05-06 23:41 | 45.51913 | -73.69055 | 1145 ft | 128 kts | 225° |
| 2026-05-06 23:41 | 45.51239 | -73.69920 | 942 ft | 135 kts | 225° |
| 2026-05-06 23:41 | 45.50521 | -73.70813 | 751 ft | 135 kts | 222° |
| 2026-05-06 23:42 | 45.49814 | -73.71713 | 591 ft | 137 kts | 221° |
| 2026-05-06 23:42 | 45.49089 | -73.72621 | 368 ft | 139 kts | 221° |
| 2026-05-06 23:42 | 45.48381 | -73.73532 | 198 ft | 134 kts | 222° |
| 2026-05-06 23:42 | 45.47728 | -73.74388 | 113 ft | 118 kts | 223° |
| 2026-05-06 23:43 | 45.47232 | -73.75032 | 112 ft | 75 kts | 223° |
| 2026-05-06 23:43 | 45.47003 | -73.75333 | 107 ft | 30 kts | 221° |
| 2026-05-06 23:43 | 45.46857 | -73.75503 | 106 ft | 26 kts | 213° |
| 2026-05-06 23:43 | 45.46695 | -73.75594 | 110 ft | 24 kts | 187° |
| 2026-05-06 23:44 | 45.46535 | -73.75648 | 111 ft | 23 kts | 195° |
| 2026-05-06 23:44 | 45.46384 | -73.75704 | 107 ft | 22 kts | 194° |
| 2026-05-06 23:44 | 45.46265 | -73.75728 | 105 ft | 10 kts | 182° |
| 2026-05-06 23:44 | 45.46196 | -73.75726 | 105 ft | 10 kts | 179° |
| 2026-05-06 23:45 | 45.46132 | -73.75770 | 103 ft | 14 kts | 244° |
| 2026-05-06 23:45 | 45.46125 | -73.75947 | 102 ft | 22 kts | 267° |
| 2026-05-06 23:45 | 45.46046 | -73.76060 | 104 ft | 19 kts | 178° |
| 2026-05-06 23:45 | 45.45896 | -73.76051 | 104 ft | 24 kts | 173° |
| 2026-05-06 23:46 | 45.45745 | -73.75984 | 105 ft | 18 kts | 135° |
| 2026-05-06 23:46 | 45.45707 | -73.75915 | 104 ft | 0 kts | 126° |
| 2026-05-06 23:46 | 45.45699 | -73.75898 | 105 ft | 4 kts | 126° |
| 2026-05-06 23:47 | 45.45672 | -73.75847 | 105 ft | 9 kts | 126° |
| 2026-05-06 23:47 | 45.45623 | -73.75761 | 106 ft | 13 kts | 128° |
| 2026-05-06 23:47 | 45.45537 | -73.75688 | 106 ft | 15 kts | 166° |
| 2026-05-06 23:47 | 45.45521 | -73.75657 | 105 ft | 5 kts | 101° |
| 2026-05-06 23:48 | 45.45517 | -73.75624 | 105 ft | 0 kts | 97° |
| 2026-05-06 23:48 | 45.45517 | -73.75621 | 104 ft | 1 kts | 97° |
| 2026-05-06 23:48 | 45.45517 | -73.75617 | 104 ft | 0 kts | 96° |